Airfield :
LOGIN :

Register | Disclaimer

   EN    FR    IT 

 










Legend :    VFR   Marginal VFR   IFR   Intensive IFR   Very Intensive IFR
Visi :
Ceiling :
>= 8 km
>= 3000ft
5 to 8 km
1000 to 3000 ft
1500m to 5 km
500 to 1000 ft
800 to 1500m
200 to 500 ft
< 800m
< 200 ft
Symbols :   Thunderstorms  Fog  Heavy snow  Heavy precipitations  Wind > 20 kt
SIGMETs :     Misc.  Thunderstorms  Icing  Turbulence  Mountain Waves  Volcanic Ashes







- Airport Elevation : 277 ft
- IATA code : JER
- Download approach charts


EGJJ - Jersey

CURRENT METAR :
  • 210920Z 25007KT 210V280 9999 FEW007 20/16 Q1014

EXPIRED METARs :
  • 210850Z 26006KT 230V300 9999 FEW007 20/16 Q1014
  • 210820Z 28003KT 220V320 9999 FEW005 19/17 Q1014
  • 210750Z 25004KT 190V280 9999 FEW005 18/17 Q1014
  • 210720Z 23004KT 9999 FEW004 17/16 Q1014
  • 210650Z VRB01KT 9999 FEW004 17/16 Q1014

TAF TAF EGJJ
Valid from the 21 at 09:00 until the 21 at 18:00 UTC


210757Z 2109/2118 VRB05KT 9999 FEW004
PROB30
TEMPO 2113/2118 2500 VCFG SCT000
ATIS : +44 1534 498 073
No reported NOTAMs for that airfield.



MET'MAP, your aeronautical weather chart ! - Copyright ORBIFLY December 2007 - Disclaimer

ORBIFLY MET'MAP TEAM :

Programming & Development : Alexandra Zaïnal
Concept & Development : Baudouin d'Aumeries
Co-Development & Prog : Marc-Olivier Méhu
Technical & hardware support : Manuel Goepfert

Contact : metmap@orbifly.com




SOURCES & CREDITS :

   NOAA